Delta Virtual Airport Information Service

Portland International Airport

ICAO: KPDX Country: United States
Latitude: 45.5887 Longitude: -122.597
Latest Arrival : UAL1178 (KSFO-KPDX) Latest Departure : ASA4421251 (KPDX-PANC)


WX CaptureLIVE
Data provided by noaa.gov | Fetched at 08:09:06

METAR : KPDX 301353Z 20009KT 10SM -RA FEW010 SCT055 BKN090 07/06 A3009 RMK AO2 RAE12B44 SLP188 P0003 T00720056

TAF : KPDX 301347Z 3014/0112 17008KT P6SM SCT016 SCT035 BKN045 TEMPO 3014/3018 5SM -SHRA OVC035 FM301800 22008KT P6SM VCSH BKN070 FM302100 26009KT P6SM FEW080 FM011100 00000KT P6SM BKN045


Runway Data for KPDX
Data provided by openaviationdata.com

Runway ID Mag Var Hdg Length Elevation Surface ILS Freq ILS Id ILS Slope
3 18 26° 6995 ft 30 ft Asphalt -- -- --
10L 18 100° 7989 ft 30 ft Asphalt 111.3 IVDG 3
10R 18 100° 10985 ft 30 ft Asphalt 110.5 IPDX 3
21 18 206° 6995 ft 30 ft Asphalt 108.9 IGPO 0
28L 18 280° 10985 ft 30 ft Asphalt 110.5 IJMJ 3
28R 18 280° 7989 ft 30 ft Asphalt 111.3 IIAP 3

Portland International Airport, United States
Use only for reference purposes



Not for navigational purposes.